Time;durP1;ratioP1;P1;durP2;ratioP2;P2;SDS_P1;SDS_P2;PMS_P1;PMS_P2;Temp;Humidity;BMP_temperature;BMP_pressure;BME280_temperature;BME280_humidity;BME280_pressure;Samples;Min_cycle;Max_cycle;Signal;HPM_P1;HPM_P2
2023/04/08 00:00:18;;;;;;;16.58;11.52;;;;;;;8.15;100.00;102320.06;4989645;28;20038;-72
2023/04/08 00:02:43;;;;;;;22.63;13.05;;;;;;;8.14;100.00;102326.13;4990791;28;20315;-72
2023/04/08 00:05:09;;;;;;;17.70;11.43;;;;;;;8.14;100.00;102314.84;4986462;28;20057;-72
2023/04/08 00:07:35;;;;;;;17.95;11.98;;;;;;;8.12;100.00;102317.47;4995087;28;20053;-72
2023/04/08 00:10:00;;;;;;;17.95;11.45;;;;;;;8.13;100.00;102315.69;4996769;28;20341;-72
2023/04/08 00:12:25;;;;;;;17.73;11.85;;;;;;;8.11;100.00;102314.84;4995481;28;20345;-72
2023/04/08 00:14:51;;;;;;;15.80;11.48;;;;;;;8.12;100.00;102319.22;4996108;28;20073;-72
2023/04/08 00:17:16;;;;;;;12.43;10.18;;;;;;;8.10;100.00;102316.59;4996989;28;20038;-72
2023/04/08 00:19:42;;;;;;;18.67;11.75;;;;;;;8.12;100.00;102321.81;4996324;28;20038;-72
2023/04/08 00:22:07;;;;;;;17.02;11.52;;;;;;;8.13;100.00;102321.81;4996757;28;20245;-72
2023/04/08 00:24:33;;;;;;;17.08;11.88;;;;;;;8.14;100.00;102320.91;4994818;28;20042;-72
2023/04/08 00:26:58;;;;;;;19.90;12.82;;;;;;;8.15;100.00;102317.44;4990481;28;20409;-72
2023/04/08 00:29:24;;;;;;;22.17;12.05;;;;;;;8.16;100.00;102323.53;4993149;28;20060;-72
2023/04/08 00:31:50;;;;;;;18.92;12.02;;;;;;;8.16;100.00;102313.94;4996297;28;20177;-72
2023/04/08 00:34:16;;;;;;;17.35;11.43;;;;;;;8.17;100.00;102317.44;4995330;28;20376;-72
2023/04/08 00:36:41;;;;;;;19.63;11.25;;;;;;;8.16;100.00;102319.16;4996201;28;20148;-72
2023/04/08 00:39:06;;;;;;;20.50;12.70;;;;;;;8.18;100.00;102320.00;4996782;28;20054;-72
2023/04/08 00:41:35;;;;;;;16.70;11.93;;;;;;;8.17;100.00;102320.03;4992693;28;20042;-72
2023/04/08 00:44:00;;;;;;;16.00;11.83;;;;;;;8.17;100.00;102320.03;4995756;28;20350;-72
2023/04/08 00:46:26;;;;;;;15.10;10.77;;;;;;;8.16;100.00;102315.69;4996262;28;20304;-72
2023/04/08 00:48:52;;;;;;;20.10;12.95;;;;;;;8.16;100.00;102320.91;4996331;28;20038;-72
2023/04/08 00:51:18;;;;;;;19.83;11.20;;;;;;;8.17;100.00;102325.28;4996283;28;20377;-72
2023/04/08 00:53:44;;;;;;;20.40;12.25;;;;;;;8.15;100.00;102320.06;4985443;28;20042;-72
2023/04/08 00:56:09;;;;;;;21.33;12.68;;;;;;;8.17;100.00;102320.03;4999937;28;20102;-72
2023/04/08 00:58:35;;;;;;;18.63;12.15;;;;;;;8.17;100.00;102320.03;4999611;28;20325;-72
2023/04/08 01:01:31;;;;;;;20.20;12.75;;;;;;;8.18;100.00;102322.63;4999628;28;20361;-72
2023/04/08 01:04:06;;;;;;;17.00;12.13;;;;;;;8.19;100.00;102332.19;4999326;28;20061;-72
2023/04/08 01:06:45;;;;;;;17.48;11.32;;;;;;;8.21;100.00;102340.88;4999917;28;20041;-72
2023/04/08 01:09:12;;;;;;;20.60;13.60;;;;;;;8.21;100.00;102337.41;4999696;28;20073;-72
2023/04/08 01:11:43;;;;;;;17.67;12.40;;;;;;;8.21;100.00;102332.19;4999350;28;20030;-72
2023/04/08 01:14:10;;;;;;;20.08;13.23;;;;;;;8.21;100.00;102330.44;5000011;28;20045;-72
2023/04/08 01:16:40;;;;;;;21.73;13.95;;;;;;;8.21;100.00;102338.25;4999099;28;20042;-72
2023/04/08 01:19:07;;;;;;;27.88;15.30;;;;;;;8.20;100.00;102331.31;4999791;28;20037;-72
2023/04/08 01:21:36;;;;;;;24.40;14.60;;;;;;;8.19;100.00;102334.81;4998897;28;20046;-72
2023/04/08 01:24:22;;;;;;;23.90;14.57;;;;;;;8.18;100.00;102335.66;4999863;28;20319;-72
2023/04/08 01:26:49;;;;;;;22.52;14.30;;;;;;;8.19;100.00;102324.38;4998833;28;20062;-72
2023/04/08 01:29:16;;;;;;;22.65;13.98;;;;;;;8.18;100.00;102330.44;4999505;28;20042;-72
2023/04/08 01:31:42;;;;;;;27.67;15.52;;;;;;;8.19;100.00;102331.34;4998509;28;20084;-72
2023/04/08 01:34:10;;;;;;;27.15;15.48;;;;;;;8.16;100.00;102332.22;4999545;28;20050;-72
2023/04/08 01:36:37;;;;;;;22.70;15.50;;;;;;;8.19;100.00;102334.81;4996113;28;20038;-72
2023/04/08 01:39:04;;;;;;;26.00;14.90;;;;;;;8.18;100.00;102338.28;4999594;28;20045;-72
2023/04/08 01:41:32;;;;;;;25.55;15.15;;;;;;;8.19;100.00;102339.16;4998955;28;20034;-72
2023/04/08 01:43:58;;;;;;;25.27;15.15;;;;;;;8.19;100.00;102337.41;4999229;28;20042;-72
2023/04/08 01:46:23;;;;;;;25.30;15.43;;;;;;;8.21;100.00;102335.66;4997421;28;20030;-72
2023/04/08 01:48:50;;;;;;;25.67;15.48;;;;;;;8.21;100.00;102334.81;4998707;28;20073;-72
2023/04/08 01:51:16;;;;;;;22.00;14.25;;;;;;;8.23;100.00;102335.66;4997314;28;20337;-72
2023/04/08 01:53:43;;;;;;;27.10;15.88;;;;;;;8.22;100.00;102337.41;4998392;28;20116;-72
2023/04/08 01:56:12;;;;;;;26.77;15.77;;;;;;;8.22;100.00;102332.19;4981187;28;20346;-72
2023/04/08 01:58:47;;;;;;;23.05;16.63;;;;;;;8.22;100.00;102333.91;4996905;28;20056;-72
2023/04/08 02:01:17;;;;;;;25.63;16.05;;;;;;;8.22;100.00;102339.13;4998834;28;20041;-72
2023/04/08 02:03:44;;;;;;;22.63;14.23;;;;;;;8.20;100.00;102331.31;4998281;28;20038;-72
2023/04/08 02:06:09;;;;;;;23.50;14.82;;;;;;;8.21;100.00;102334.81;4998686;28;20081;-72
2023/04/08 02:08:35;;;;;;;27.30;16.00;;;;;;;8.19;100.00;102326.97;4996979;28;20062;-72
2023/04/08 02:11:02;;;;;;;26.13;15.63;;;;;;;8.19;100.00;102332.19;4998863;28;20374;-72
2023/04/08 02:13:29;;;;;;;27.60;16.27;;;;;;;8.20;100.00;102339.13;4998851;28;20114;-72
2023/04/08 02:16:03;;;;;;;26.63;15.20;;;;;;;8.20;100.00;102333.06;4997993;28;20093;-72
2023/04/08 02:18:31;;;;;;;24.55;15.30;;;;;;;8.20;100.00;102343.50;4998508;28;20274;-72
2023/04/08 02:21:21;;;;;;;26.05;15.65;;;;;;;8.19;100.00;102332.19;4997866;28;20117;-72
2023/04/08 02:23:50;;;;;;;25.70;15.75;;;;;;;8.18;100.00;102335.66;4997913;28;20233;-72
2023/04/08 02:26:16;;;;;;;26.13;15.52;;;;;;;8.16;100.00;102334.81;4996460;28;20030;-72
2023/04/08 02:28:42;;;;;;;26.73;16.05;;;;;;;8.16;100.00;102339.19;4997996;28;20332;-72
2023/04/08 02:31:12;;;;;;;28.00;16.98;;;;;;;8.15;100.00;102338.31;4997868;28;20050;-72
2023/04/08 02:33:38;;;;;;;24.58;15.77;;;;;;;8.16;100.00;102342.66;4995507;28;20229;-72
2023/04/08 02:36:05;;;;;;;28.63;16.38;;;;;;;8.15;100.00;102342.66;4998243;28;20037;-72
2023/04/08 02:38:30;;;;;;;25.27;15.15;;;;;;;8.14;100.00;102333.97;4998524;28;20041;-72
2023/04/08 02:40:57;;;;;;;31.50;17.33;;;;;;;8.14;100.00;102346.16;4997605;28;20042;-72
2023/04/08 02:43:30;;;;;;;25.42;15.93;;;;;;;8.14;100.00;102339.19;4998045;28;20026;-72
2023/04/08 02:45:56;;;;;;;25.48;16.15;;;;;;;8.15;100.00;102345.25;4997694;28;20046;-72
2023/04/08 02:48:21;;;;;;;26.92;16.02;;;;;;;8.14;100.00;102347.00;4997759;28;20042;-72
2023/04/08 02:50:47;;;;;;;29.80;15.90;;;;;;;8.14;100.00;102346.16;4997026;28;20890;-72
2023/04/08 02:53:12;;;;;;;29.00;17.00;;;;;;;8.14;100.00;102351.38;4998068;28;20103;-72
2023/04/08 02:55:38;;;;;;;28.02;16.95;;;;;;;8.14;100.00;102353.97;4997594;28;20249;-72
2023/04/08 02:58:03;;;;;;;28.95;16.17;;;;;;;8.13;100.00;102347.03;4997697;28;20046;-72
2023/04/08 03:00:29;;;;;;;24.35;15.63;;;;;;;8.13;100.00;102353.13;4997679;28;20035;-72
2023/04/08 03:02:54;;;;;;;26.83;15.10;;;;;;;8.12;100.00;102351.38;4996829;28;20034;-72
2023/04/08 03:05:20;;;;;;;30.05;16.92;;;;;;;8.13;100.00;102353.13;4997465;28;20053;-72
2023/04/08 03:07:46;;;;;;;29.05;16.90;;;;;;;8.13;100.00;102353.13;4994372;28;20034;-72
2023/04/08 03:10:11;;;;;;;28.42;16.08;;;;;;;8.13;100.00;102352.22;4997907;28;20046;-72
2023/04/08 03:12:36;;;;;;;28.95;17.17;;;;;;;8.12;100.00;102356.59;4996754;28;20044;-72
2023/04/08 03:15:02;;;;;;;28.65;16.52;;;;;;;8.12;100.00;102361.81;4997876;28;20062;-72
2023/04/08 03:17:28;;;;;;;31.55;17.25;;;;;;;8.12;100.00;102363.56;4994220;28;20053;-72
2023/04/08 03:19:53;;;;;;;30.70;16.35;;;;;;;8.11;100.00;102360.06;4996815;28;20080;-72
2023/04/08 03:22:19;;;;;;;27.83;15.88;;;;;;;8.11;100.00;102367.91;4997171;28;20296;-72
2023/04/08 03:24:44;;;;;;;31.23;16.77;;;;;;;8.11;100.00;102367.91;4996855;28;20049;-72
2023/04/08 03:27:11;;;;;;;29.35;17.58;;;;;;;8.12;100.00;102367.03;4997243;28;20096;-72
2023/04/08 03:29:37;;;;;;;27.80;16.20;;;;;;;8.11;100.00;102365.28;4995767;28;20057;-72
2023/04/08 03:32:02;;;;;;;27.88;16.08;;;;;;;8.12;100.00;102371.41;4997138;28;20093;-72
2023/04/08 03:34:27;;;;;;;30.90;16.60;;;;;;;8.11;100.00;102370.50;4997353;28;20386;-72
2023/04/08 03:36:53;;;;;;;28.70;16.08;;;;;;;8.10;100.00;102371.41;4996599;28;20432;-72
2023/04/08 03:39:18;;;;;;;26.80;16.23;;;;;;;8.11;100.00;102377.47;4996952;28;20293;-72
2023/04/08 03:41:44;;;;;;;26.77;16.05;;;;;;;8.10;100.00;102379.22;4996675;28;20420;-72
2023/04/08 03:44:09;;;;;;;25.00;15.93;;;;;;;8.11;100.00;102378.34;4997143;28;20053;-72
2023/04/08 03:46:35;;;;;;;26.80;15.48;;;;;;;8.09;100.00;102374.88;4996624;28;20109;-72
2023/04/08 03:49:00;;;;;;;28.75;15.27;;;;;;;8.09;100.00;102382.69;4997038;28;20042;-72
2023/04/08 03:51:27;;;;;;;26.67;15.93;;;;;;;8.09;100.00;102385.31;4995144;28;20313;-72
2023/04/08 03:53:52;;;;;;;27.40;16.15;;;;;;;8.09;100.00;102382.69;4996761;28;20375;-75
2023/04/08 03:56:18;;;;;;;25.95;15.35;;;;;;;8.10;100.00;102387.06;4997051;28;20030;-72
2023/04/08 03:58:43;;;;;;;29.33;15.63;;;;;;;8.10;100.00;102384.44;4996457;28;20073;-72
2023/04/08 04:01:08;;;;;;;31.38;16.10;;;;;;;8.08;100.00;102389.66;4997268;28;20030;-72
2023/04/08 04:03:34;;;;;;;27.42;16.20;;;;;;;8.08;100.00;102387.06;4995800;28;20042;-72
2023/04/08 04:05:59;;;;;;;27.45;15.43;;;;;;;8.07;100.00;102385.31;4996876;28;20045;-72
2023/04/08 04:08:24;;;;;;;27.48;16.38;;;;;;;8.08;100.00;102391.44;4996877;28;20038;-72
2023/04/08 04:10:50;;;;;;;29.75;16.20;;;;;;;8.06;100.00;102391.44;4996342;28;20038;-72
2023/04/08 04:13:16;;;;;;;29.20;17.17;;;;;;;8.08;100.00;102397.50;4996494;28;20034;-72
2023/04/08 04:15:41;;;;;;;29.83;16.77;;;;;;;8.06;100.00;102388.81;4996038;28;20106;-72
2023/04/08 04:18:07;;;;;;;28.92;16.52;;;;;;;8.08;100.00;102394.88;4997032;28;20046;-72
2023/04/08 04:20:32;;;;;;;26.55;15.68;;;;;;;8.08;100.00;102402.72;4996701;28;20038;-72
2023/04/08 04:22:58;;;;;;;27.98;16.17;;;;;;;8.08;100.00;102399.25;4997171;28;20077;-72
2023/04/08 04:25:23;;;;;;;26.65;16.33;;;;;;;8.07;100.00;102405.34;4997123;28;20253;-72
2023/04/08 04:27:49;;;;;;;30.00;16.75;;;;;;;8.06;100.00;102407.09;4996440;28;20046;-72
2023/04/08 04:30:14;;;;;;;29.73;16.48;;;;;;;8.07;100.00;102410.56;4999621;28;20064;-72
2023/04/08 04:32:43;;;;;;;28.75;16.20;;;;;;;8.05;100.00;102412.31;4999257;28;20038;-72
2023/04/08 04:35:11;;;;;;;31.08;17.02;;;;;;;8.07;100.00;102418.38;5000256;28;20034;-72
2023/04/08 04:37:37;;;;;;;30.00;17.23;;;;;;;8.06;100.00;102407.09;4999739;28;20203;-72
2023/04/08 04:40:04;;;;;;;32.25;17.48;;;;;;;8.05;100.00;102414.91;5000483;28;20041;-72
2023/04/08 04:42:29;;;;;;;27.30;16.15;;;;;;;8.03;100.00;102409.69;5000160;28;20042;-72
2023/04/08 04:44:54;;;;;;;30.60;17.33;;;;;;;8.02;100.00;102414.91;4999971;28;20341;-72
2023/04/08 04:47:20;;;;;;;31.30;17.92;;;;;;;8.01;100.00;102427.09;5000032;28;20042;-72
2023/04/08 04:49:45;;;;;;;29.67;17.83;;;;;;;8.00;100.00;102430.56;4999554;28;20050;-72
2023/04/08 04:52:11;;;;;;;37.00;19.95;;;;;;;7.99;100.00;102431.47;5000005;28;21148;-72
2023/04/08 04:54:36;;;;;;;31.92;18.08;;;;;;;7.98;100.00;102431.47;4998289;28;20045;-72
2023/04/08 04:57:02;;;;;;;30.60;19.25;;;;;;;7.95;100.00;102432.38;5000283;28;20041;-72
2023/04/08 04:59:27;;;;;;;29.77;17.75;;;;;;;7.94;100.00;102432.38;5000125;28;20045;-72
2023/04/08 05:01:52;;;;;;;28.88;18.25;;;;;;;7.93;100.00;102428.00;4997247;28;20098;-72
2023/04/08 05:04:18;;;;;;;29.60;17.75;;;;;;;7.92;100.00;102431.50;5000346;28;20034;-72
2023/04/08 05:06:43;;;;;;;28.80;17.40;;;;;;;7.92;100.00;102428.91;4999958;28;20229;-72
2023/04/08 05:09:08;;;;;;;29.00;17.33;;;;;;;7.91;100.00;102430.63;4999476;28;20046;-72
2023/04/08 05:11:34;;;;;;;29.25;18.10;;;;;;;7.91;100.00;102433.22;4999335;28;20089;-72
2023/04/08 05:13:59;;;;;;;25.98;16.58;;;;;;;7.91;100.00;102442.81;5000104;28;20268;-72
2023/04/08 05:16:24;;;;;;;29.52;18.35;;;;;;;7.91;100.00;102441.06;4998399;28;20072;-72
2023/04/08 05:18:50;;;;;;;26.92;17.15;;;;;;;7.92;100.00;102439.34;4999097;28;20456;-72
2023/04/08 05:21:15;;;;;;;28.13;18.23;;;;;;;7.91;100.00;102437.59;4998185;28;20337;-72
2023/04/08 05:23:40;;;;;;;31.90;19.27;;;;;;;7.90;100.00;102447.16;4999223;28;20045;-72
2023/04/08 05:26:07;;;;;;;29.63;18.02;;;;;;;7.87;100.00;102452.38;4999604;28;20361;-72
2023/04/08 05:28:33;;;;;;;28.58;17.65;;;;;;;7.85;100.00;102449.78;4998422;28;20030;-72
2023/04/08 05:30:58;;;;;;;29.80;18.23;;;;;;;7.84;100.00;102450.66;4999527;28;20092;-72
2023/04/08 05:33:25;;;;;;;29.30;17.90;;;;;;;7.85;100.00;102455.00;4997506;28;20034;-72
2023/04/08 05:35:51;;;;;;;27.48;16.38;;;;;;;7.84;100.00;102460.22;4999101;28;20248;-72
2023/04/08 05:38:17;;;;;;;26.58;16.23;;;;;;;7.85;100.00;102459.34;4997891;28;20341;-72
2023/04/08 05:40:42;;;;;;;28.73;17.42;;;;;;;7.83;100.00;102459.34;4998241;28;20064;-72
2023/04/08 05:43:08;;;;;;;27.15;17.58;;;;;;;7.82;100.00;102461.97;4999391;28;20034;-72
2023/04/08 05:45:33;;;;;;;27.58;16.95;;;;;;;7.82;100.00;102469.78;4998494;28;20034;-72
2023/04/08 05:47:59;;;;;;;33.40;18.02;;;;;;;7.80;100.00;102472.38;4997715;28;20049;-72
2023/04/08 05:50:24;;;;;;;27.73;16.60;;;;;;;7.81;100.00;102479.34;4999245;28;20042;-72
2023/04/08 05:52:49;;;;;;;27.88;17.20;;;;;;;7.80;100.00;102476.75;4998681;28;20397;-72
2023/04/08 05:55:15;;;;;;;25.77;16.08;;;;;;;7.78;100.00;102481.97;4999283;28;20042;-72
2023/04/08 05:57:41;;;;;;;28.98;16.55;;;;;;;7.78;100.00;102486.31;4998363;28;20042;-72
2023/04/08 06:00:08;;;;;;;25.42;16.05;;;;;;;7.78;100.00;102492.41;4996309;28;20137;-72
2023/04/08 06:02:35;;;;;;;27.80;16.00;;;;;;;7.76;100.00;102495.91;4998202;28;20069;-72
2023/04/08 06:05:00;;;;;;;28.63;16.42;;;;;;;7.75;100.00;102495.03;4998565;28;20384;-72
2023/04/08 06:07:26;;;;;;;26.17;16.20;;;;;;;7.75;100.00;102499.34;4989820;28;20043;-72
2023/04/08 06:09:51;;;;;;;26.42;16.13;;;;;;;7.73;100.00;102496.78;4991889;28;20054;-72
2023/04/08 06:12:16;;;;;;;24.60;16.35;;;;;;;7.72;100.00;102494.16;4988056;28;20113;-72
2023/04/08 06:14:42;;;;;;;28.98;17.30;;;;;;;7.72;100.00;102504.59;4995421;28;20092;-72
2023/04/08 06:17:07;;;;;;;27.10;16.02;;;;;;;7.73;100.00;102509.81;4995097;28;20064;-72
2023/04/08 06:19:34;;;;;;;29.38;16.70;;;;;;;7.72;100.00;102508.06;4996140;28;20129;-72
2023/04/08 06:21:59;;;;;;;28.70;16.88;;;;;;;7.73;100.00;102514.16;4994865;28;20026;-72
2023/04/08 06:24:26;;;;;;;26.58;15.52;;;;;;;7.73;100.00;102508.94;4996307;28;20034;-72
2023/04/08 06:26:52;;;;;;;27.38;15.25;;;;;;;7.72;100.00;102515.91;4993540;28;20042;-72
2023/04/08 06:29:18;;;;;;;26.27;15.98;;;;;;;7.71;100.00;102518.50;4995512;28;20053;-72
2023/04/08 06:31:43;;;;;;;25.48;15.60;;;;;;;7.68;100.00;102522.00;4991647;28;20038;-72
2023/04/08 06:34:09;;;;;;;25.88;16.63;;;;;;;7.66;100.00;102521.13;4991664;28;20050;-72
2023/04/08 06:36:34;;;;;;;24.02;15.48;;;;;;;7.64;100.00;102528.06;4987577;28;20042;-72
2023/04/08 06:38:59;;;;;;;25.30;15.52;;;;;;;7.61;100.00;102531.56;4992226;28;20108;-72
2023/04/08 06:41:25;;;;;;;23.83;14.32;;;;;;;7.61;100.00;102539.38;4988464;28;20091;-72
2023/04/08 06:43:50;;;;;;;24.38;15.48;;;;;;;7.59;100.00;102535.91;4993135;28;20050;-72
2023/04/08 06:46:15;;;;;;;23.45;15.45;;;;;;;7.60;100.00;102536.78;4992779;28;20042;-72
2023/04/08 06:48:41;;;;;;;24.00;14.50;;;;;;;7.59;100.00;102535.91;4997187;28;20101;-72
2023/04/08 06:51:06;;;;;;;23.85;14.63;;;;;;;7.60;100.00;102540.22;4997920;28;20093;-72
2023/04/08 06:53:32;;;;;;;21.95;13.60;;;;;;;7.61;100.00;102544.59;4996954;28;20403;-72
2023/04/08 06:55:58;;;;;;;21.17;13.45;;;;;;;7.63;100.00;102544.59;4998363;28;20054;-72
2023/04/08 06:58:23;;;;;;;17.77;12.35;;;;;;;7.64;100.00;102548.91;4994161;28;20057;-72
2023/04/08 07:00:48;;;;;;;23.65;14.23;;;;;;;7.65;100.00;102558.50;4995308;28;20388;-72
2023/04/08 07:03:14;;;;;;;24.83;14.88;;;;;;;7.63;100.00;102558.50;4997215;28;20049;-72
2023/04/08 07:05:41;;;;;;;25.70;15.60;;;;;;;7.63;100.00;102560.25;4996998;28;20427;-72
2023/04/08 07:08:06;;;;;;;25.75;15.38;;;;;;;7.62;100.00;102566.31;4997918;28;20341;-72
2023/04/08 07:10:33;;;;;;;24.40;14.43;;;;;;;7.62;100.00;102567.22;4997377;28;20109;-72
2023/04/08 07:12:59;;;;;;;24.23;15.70;;;;;;;7.62;100.00;102569.81;4997092;28;20041;-72
2023/04/08 07:15:24;;;;;;;23.70;15.07;;;;;;;7.62;100.00;102571.53;4997811;28;20026;-72
2023/04/08 07:17:50;;;;;;;27.83;16.83;;;;;;;7.61;100.00;102575.03;4996737;28;20347;-72
2023/04/08 07:20:16;;;;;;;28.50;17.15;;;;;;;7.59;100.00;102571.56;4995063;28;20042;-72
2023/04/08 07:22:41;;;;;;;31.50;17.83;;;;;;;7.61;100.00;102572.41;4996757;28;20026;-72
2023/04/08 07:25:07;;;;;;;30.40;16.80;;;;;;;7.60;100.00;102568.91;4991835;28;20106;-72
2023/04/08 07:27:33;;;;;;;27.77;16.58;;;;;;;7.61;100.00;102564.59;4990530;28;20038;-72
2023/04/08 07:29:58;;;;;;;31.02;17.17;;;;;;;7.62;100.00;102575.03;4990392;28;20285;-72
2023/04/08 07:32:24;;;;;;;29.40;16.73;;;;;;;7.63;100.00;102584.56;4989144;28;20084;-72
2023/04/08 07:34:49;;;;;;;29.27;16.73;;;;;;;7.64;100.00;102585.44;4987172;28;20099;-72
2023/04/08 07:37:16;;;;;;;32.50;17.80;;;;;;;7.65;100.00;102581.97;4987928;28;20038;-72
2023/04/08 07:39:42;;;;;;;31.55;18.13;;;;;;;7.67;100.00;102577.63;4988109;28;20037;-72
2023/04/08 07:42:07;;;;;;;33.70;20.13;;;;;;;7.68;100.00;102579.38;4991211;28;20053;-72
2023/04/08 07:44:32;;;;;;;41.50;20.80;;;;;;;7.71;100.00;102581.09;4992325;28;20041;-72
2023/04/08 07:46:58;;;;;;;38.85;20.33;;;;;;;7.73;100.00;102581.94;4988119;28;20050;-72
2023/04/08 07:49:23;;;;;;;35.28;19.77;;;;;;;7.76;100.00;102585.44;4991153;28;20353;-72
2023/04/08 07:51:48;;;;;;;40.25;21.33;;;;;;;7.77;100.00;102586.31;4993148;28;20300;-72
2023/04/08 07:54:16;;;;;;;39.72;20.80;;;;;;;7.79;100.00;102589.78;4990189;28;20070;-72
2023/04/08 07:56:43;;;;;;;36.00;19.50;;;;;;;7.81;100.00;102583.69;4989390;28;20132;-72
2023/04/08 07:59:09;;;;;;;45.05;22.77;;;;;;;7.83;100.00;102589.78;4991241;28;20368;-72
2023/04/08 08:01:35;;;;;;;40.97;21.58;;;;;;;7.85;100.00;102587.16;4991746;28;20026;-72
2023/04/08 08:04:01;;;;;;;39.15;21.00;;;;;;;7.85;100.00;102588.03;4990470;28;20038;-72
2023/04/08 08:06:27;;;;;;;43.33;23.65;;;;;;;7.87;100.00;102590.63;4995068;28;20038;-72
2023/04/08 08:08:52;;;;;;;44.33;24.60;;;;;;;7.87;100.00;102596.72;4994418;28;20038;-72
2023/04/08 08:11:18;;;;;;;42.95;24.20;;;;;;;7.90;100.00;102595.00;4994018;28;20054;-72
2023/04/08 08:13:44;;;;;;;42.78;24.15;;;;;;;7.90;100.00;102597.59;4992010;28;20038;-72
2023/04/08 08:16:10;;;;;;;44.97;24.80;;;;;;;7.93;100.00;102602.78;4993379;28;20027;-72
2023/04/08 08:18:36;;;;;;;46.85;24.92;;;;;;;7.95;100.00;102601.94;4999810;28;20053;-72
2023/04/08 08:21:02;;;;;;;43.22;25.13;;;;;;;7.97;100.00;102604.56;5000984;28;20038;-72
2023/04/08 08:23:27;;;;;;;46.90;25.75;;;;;;;7.99;100.00;102608.88;5001625;28;20081;-72
2023/04/08 08:26:05;;;;;;;47.65;28.05;;;;;;;8.01;100.00;102611.50;5000504;28;20038;-72
2023/04/08 08:28:30;;;;;;;47.60;26.73;;;;;;;8.03;100.00;102610.59;5000444;28;20034;-72
2023/04/08 08:30:56;;;;;;;51.08;27.42;;;;;;;8.06;100.00;102609.75;4999916;28;20050;-72
2023/04/08 08:33:21;;;;;;;50.70;27.00;;;;;;;8.08;100.00;102616.69;5000543;28;20129;-72
2023/04/08 08:35:47;;;;;;;48.88;26.63;;;;;;;8.12;100.00;102612.34;4993678;28;20145;-72
2023/04/08 08:38:12;;;;;;;44.90;26.52;;;;;;;8.15;100.00;102616.66;4990486;28;20077;-72
2023/04/08 08:40:38;;;;;;;48.17;26.55;;;;;;;8.16;100.00;102619.28;4992241;28;20049;-72
2023/04/08 08:43:04;;;;;;;48.60;26.17;;;;;;;8.16;100.00;102618.41;4998577;28;20372;-72
2023/04/08 08:45:29;;;;;;;46.10;26.35;;;;;;;8.16;100.00;102627.13;4991771;28;20030;-72
2023/04/08 08:47:56;;;;;;;46.80;26.25;;;;;;;8.15;100.00;102622.78;4982878;28;20050;-72
2023/04/08 08:50:24;;;;;;;42.22;25.10;;;;;;;8.16;100.00;102627.13;4992232;28;20304;-72
2023/04/08 08:52:51;;;;;;;46.40;26.67;;;;;;;8.16;100.00;102621.91;4986113;28;20159;-72
2023/04/08 08:55:20;;;;;;;43.95;25.55;;;;;;;8.16;100.00;102621.91;4999231;28;20289;-72
2023/04/08 08:57:47;;;;;;;44.78;25.27;;;;;;;8.16;100.00;102626.25;4998182;28;20110;-72
2023/04/08 09:00:14;;;;;;;43.03;24.55;;;;;;;8.15;100.00;102617.56;4999039;28;20038;-72
2023/04/08 09:02:40;;;;;;;40.42;24.05;;;;;;;8.16;100.00;102623.63;4997955;28;20037;-72
2023/04/08 09:05:06;;;;;;;36.35;23.13;;;;;;;8.15;100.00;102619.28;4998883;28;20034;-72
2023/04/08 09:07:35;;;;;;;32.63;21.55;;;;;;;8.14;100.00;102621.03;4998634;28;20034;-72
2023/04/08 09:10:01;;;;;;;;;;;;;;;8.14;100.00;102623.63;4990718;28;20434;-72
2023/04/08 09:12:27;;;;;;;33.08;20.77;;;;;;;8.13;100.00;102632.34;4999102;28;19952;-72
2023/04/08 09:15:06;;;;;;;31.30;21.02;;;;;;;8.13;100.00;102629.75;4997433;28;20038;-72
2023/04/08 09:17:34;;;;;;;34.75;22.65;;;;;;;8.13;100.00;102626.25;4994588;28;20070;-72
2023/04/08 09:20:12;;;;;;;33.75;23.00;;;;;;;8.13;100.00;102629.75;4998612;28;20047;-72
2023/04/08 09:22:54;;;;;;;37.33;22.40;;;;;;;8.14;100.00;102634.06;4997778;28;20465;-72
2023/04/08 09:25:27;;;;;;;36.88;24.50;;;;;;;8.15;100.00;102633.22;4998606;28;20391;-72
2023/04/08 09:27:52;;;;;;;34.00;23.20;;;;;;;8.17;100.00;102630.63;4998020;28;20097;-72
2023/04/08 09:30:19;;;;;;;30.33;21.42;;;;;;;8.20;100.00;102639.28;4998143;28;20038;-72
2023/04/08 09:32:48;;;;;;;34.05;22.70;;;;;;;8.24;100.00;102633.19;4997409;28;20038;-72
2023/04/08 09:35:16;;;;;;;31.25;22.77;;;;;;;8.27;100.00;102630.56;4997953;28;20102;-72
2023/04/08 09:37:41;;;;;;;32.10;21.90;;;;;;;8.30;100.00;102637.53;4997711;28;20038;-72
2023/04/08 09:40:15;;;;;;;34.05;22.75;;;;;;;8.32;100.00;102635.78;4998350;28;20052;-72
2023/04/08 09:42:44;;;;;;;33.00;23.05;;;;;;;8.34;100.00;102636.66;4998691;28;20096;-72
2023/04/08 09:45:11;;;;;;;31.13;22.35;;;;;;;8.34;100.00;102634.03;4997820;28;20333;-73
2023/04/08 09:48:08;;;;;;;31.40;21.95;;;;;;;8.39;100.00;102642.72;4998607;28;20053;-73
2023/04/08 09:50:41;;;;;;;32.10;22.17;;;;;;;8.41;100.00;102633.16;4998244;28;20042;-73
2023/04/08 09:53:14;;;;;;;30.52;22.48;;;;;;;8.44;100.00;102632.28;4998681;28;20101;-73
2023/04/08 09:55:42;;;;;;;33.95;22.58;;;;;;;8.49;100.00;102634.91;4994689;28;20033;-73
2023/04/08 09:58:15;;;;;;;32.37;23.90;;;;;;;8.55;100.00;102635.75;4998802;28;20364;-73
2023/04/08 10:00:49;;;;;;;36.08;25.02;;;;;;;8.60;100.00;102646.16;4998173;28;20285;-73
2023/04/08 10:03:23;;;;;;;34.08;24.85;;;;;;;8.64;100.00;102635.72;4996994;28;20084;-72
2023/04/08 10:05:51;;;;;;;36.45;24.60;;;;;;;8.69;100.00;102647.88;4998059;28;20048;-73
2023/04/08 10:08:17;;;;;;;35.22;24.23;;;;;;;8.69;100.00;102643.53;4996688;28;20109;-73
2023/04/08 10:10:43;;;;;;;32.78;23.23;;;;;;;8.72;100.00;102638.28;4997936;28;20389;-73
2023/04/08 10:13:09;;;;;;;28.15;21.77;;;;;;;8.75;100.00;102640.00;4997963;28;20037;-73
2023/04/08 10:15:39;;;;;;;29.55;21.98;;;;;;;8.78;99.43;102632.16;4997659;28;20049;-73
2023/04/08 10:18:05;;;;;;;25.88;20.75;;;;;;;8.84;98.66;102637.34;4998538;28;20034;-73
2023/04/08 10:20:33;;;;;;;26.08;20.63;;;;;;;8.87;97.13;102642.56;4997812;28;20344;-73
2023/04/08 10:22:59;;;;;;;26.88;20.27;;;;;;;8.91;97.32;102633.84;4994962;28;20050;-73
2023/04/08 10:25:25;;;;;;;26.92;19.70;;;;;;;8.93;96.87;102637.34;4996837;28;20054;-73
2023/04/08 10:27:50;;;;;;;24.98;20.15;;;;;;;8.94;96.13;102641.66;4995203;28;20437;-73
2023/04/08 10:30:24;;;;;;;26.80;21.25;;;;;;;8.98;96.80;102638.16;4996787;28;20034;-73
2023/04/08 10:32:50;;;;;;;26.83;20.48;;;;;;;9.03;97.29;102625.09;4993297;28;20112;-73
2023/04/08 10:35:16;;;;;;;25.58;20.95;;;;;;;9.10;98.44;102634.63;4995237;28;20269;-73
2023/04/08 10:37:42;;;;;;;22.58;19.10;;;;;;;9.13;95.49;102631.13;4993156;28;20048;-73
2023/04/08 10:40:18;;;;;;;22.92;18.23;;;;;;;9.16;93.32;102623.25;4990136;28;20042;-73
2023/04/08 10:42:43;;;;;;;21.70;16.70;;;;;;;9.20;91.65;102624.97;4991456;28;20038;-73
2023/04/08 10:45:09;;;;;;;69.95;33.72;;;;;;;9.26;92.27;102624.94;4994632;28;20404;-73
2023/04/08 10:47:35;;;;;;;24.98;19.02;;;;;;;9.32;91.55;102626.66;4996139;28;20352;-72
2023/04/08 10:50:11;;;;;;;26.33;19.10;;;;;;;9.35;92.11;102619.66;4992144;28;20369;-72
2023/04/08 10:52:48;;;;;;;28.27;19.05;;;;;;;9.40;93.43;102627.44;4994273;28;20165;-72
2023/04/08 10:55:15;;;;;;;24.92;17.85;;;;;;;9.43;93.06;102624.81;4995790;28;20065;-72
2023/04/08 10:57:40;;;;;;;21.15;16.92;;;;;;;9.47;92.21;102623.06;4983586;28;20030;-73
2023/04/08 11:00:10;;;;;;;23.70;17.98;;;;;;;9.50;92.02;102623.03;4988343;28;20233;-72
2023/04/08 11:02:39;;;;;;;20.90;16.45;;;;;;;9.55;92.32;102624.72;4990582;28;20042;-72
2023/04/08 11:05:05;;;;;;;20.95;16.02;;;;;;;9.60;91.42;102632.53;4990869;28;20046;-72
2023/04/08 11:07:30;;;;;;;20.48;16.27;;;;;;;9.63;90.50;102632.50;4991337;28;20056;-73